Middleburg Heights, Ohio
Current Conditions -  °F | °C
As of 3:08 AM on Friday 19 Dec 2014 (Local Time) from KCLE Reporting Station
Light Snow Light Snow  
Wind Chill: 21°   Ceiling: 700
Heat Index: 30°   Visibility: 1.5mi
Dew Point: 27°   Wind: 12mph
Humidity: 88%   Direction: 250°WSW
Pressure: 30.19"   Gusts: NA
Location:  41.3776°N, 81.7863°W
Report Text: KCLE 190808Z 25010KT 1 1/2SM -SN BR OVC007 M01/M03 A3019 RMK AO2 P0000 T10111028
Loading
Personal Weather Stations






























Interactive Weather Map New forecast layout! Learn more

10-Day Weather Forecast

Advertisements
Track Severe Weather on mobile